createdAt,value
2022-08-12T00:00:01.348Z,60.70
2022-08-12T00:07:22.884Z,61.20
2022-08-12T00:14:42.569Z,61.80
2022-08-12T00:22:01.976Z,62.20
2022-08-12T00:29:22.285Z,62.60
2022-08-12T00:36:46.250Z,62.90
2022-08-12T00:43:56.302Z,63.40
2022-08-12T00:51:00.501Z,63.90
2022-08-12T00:58:05.489Z,64.60
2022-08-12T01:05:30.342Z,66.00
2022-08-12T01:12:32.037Z,65.70
2022-08-12T01:19:33.356Z,66.30
2022-08-12T01:26:34.967Z,66.90
2022-08-12T01:33:43.942Z,67.40
2022-08-12T01:40:47.154Z,67.90
2022-08-12T01:48:07.999Z,68.30
2022-08-12T01:55:11.229Z,69.00
2022-08-12T02:02:16.917Z,69.60
2022-08-12T02:09:47.310Z,70.10
2022-08-12T02:17:01.806Z,70.60
2022-08-12T02:24:04.498Z,71.10
2022-08-12T02:31:08.826Z,71.50
2022-08-12T02:38:12.538Z,72.10
2022-08-12T02:45:16.163Z,72.60
2022-08-12T02:52:18.594Z,73.00
2022-08-12T02:59:21.880Z,73.30
2022-08-12T03:06:27.325Z,73.90
2022-08-12T03:13:30.591Z,75.20
2022-08-12T03:20:38.069Z,74.70
2022-08-12T03:27:41.876Z,75.30
2022-08-12T03:34:42.924Z,75.90
2022-08-12T03:41:59.699Z,76.50
2022-08-12T03:49:19.383Z,77.10
2022-08-12T03:56:38.383Z,77.50
2022-08-12T04:03:55.220Z,77.90
2022-08-12T04:11:14.750Z,78.20
2022-08-12T04:18:16.288Z,78.80
2022-08-12T04:25:17.017Z,79.20
2022-08-12T04:32:18.011Z,79.70
2022-08-12T04:39:18.874Z,80.10
2022-08-12T04:46:23.932Z,80.40
2022-08-12T04:53:26.755Z,80.80
2022-08-12T05:00:27.574Z,81.20
2022-08-12T05:07:28.394Z,81.80
2022-08-12T05:14:28.565Z,82.00
2022-08-12T05:21:29.089Z,82.50
2022-08-12T05:28:30.351Z,82.70
2022-08-12T05:35:31.174Z,83.20
2022-08-12T05:42:34.700Z,83.60
2022-08-12T05:49:41.856Z,83.50
2022-08-12T05:56:42.568Z,83.30
2022-08-12T06:03:43.152Z,82.90
2022-08-12T06:10:43.932Z,82.20
2022-08-12T06:17:44.972Z,81.70
2022-08-12T06:24:45.194Z,80.90
2022-08-12T06:31:52.067Z,80.20
2022-08-12T06:38:52.402Z,79.40
2022-08-12T06:45:53.585Z,78.40
2022-08-12T06:52:54.207Z,77.00
2022-08-12T06:59:54.711Z,75.80
2022-08-12T07:06:55.757Z,74.90
2022-08-12T07:14:11.645Z,74.10
2022-08-12T07:21:14.180Z,73.30
2022-08-12T07:28:25.290Z,71.70
2022-08-12T07:35:25.359Z,70.30
2022-08-12T07:42:26.520Z,69.50
2022-08-12T07:49:28.042Z,68.50
2022-08-12T07:56:29.127Z,67.10
2022-08-12T08:03:32.129Z,66.20
2022-08-12T08:10:33.360Z,65.10
2022-08-12T08:17:34.401Z,64.60
2022-08-12T08:24:34.841Z,63.70
2022-08-12T08:31:35.909Z,63.50
2022-08-12T08:38:36.361Z,62.90
2022-08-12T08:45:37.275Z,61.90
2022-08-12T08:52:40.605Z,61.70
2022-08-12T08:59:41.314Z,61.70
2022-08-12T09:06:53.912Z,60.30
2022-08-12T09:14:12.623Z,59.50
2022-08-12T09:21:16.467Z,59.50
2022-08-12T09:28:18.422Z,58.60
2022-08-12T09:35:33.569Z,58.10
2022-08-12T09:43:16.619Z,57.60
2022-08-12T09:50:20.595Z,57.30
2022-08-12T09:58:44.741Z,56.80
2022-08-12T10:04:51.645Z,56.20
2022-08-12T10:12:13.028Z,55.30
2022-08-12T10:19:17.193Z,54.80
2022-08-12T10:26:39.442Z,54.10
2022-08-12T10:33:55.135Z,53.90
2022-08-12T10:41:21.102Z,54.60
2022-08-12T10:48:33.553Z,53.00
2022-08-12T10:55:35.510Z,52.80
2022-08-12T11:04:27.267Z,52.90
2022-08-12T11:10:01.630Z,52.40
2022-08-12T11:17:43.144Z,52.00
2022-08-12T11:24:32.068Z,51.30
2022-08-12T11:31:56.074Z,50.90
2022-08-12T11:38:55.348Z,50.90
2022-08-12T11:45:59.112Z,50.20
2022-08-12T11:52:59.633Z,49.70
2022-08-12T12:07:22.552Z,48.70
2022-08-12T12:14:39.129Z,48.00
2022-08-12T12:21:47.647Z,48.20
2022-08-12T12:28:54.283Z,47.90
2022-08-12T12:36:19.746Z,47.30
2022-08-12T12:43:17.325Z,46.50
2022-08-12T12:51:09.553Z,46.00
2022-08-12T12:58:16.199Z,46.40
2022-08-12T13:05:27.727Z,45.40
2022-08-12T13:12:28.700Z,44.50
2022-08-12T13:19:38.958Z,44.10
2022-08-12T13:26:45.686Z,44.10
2022-08-12T13:34:33.816Z,44.40
2022-08-12T13:41:35.803Z,43.60
2022-08-12T13:48:36.884Z,43.50
2022-08-12T13:55:41.360Z,42.70
2022-08-12T14:02:43.298Z,42.00
2022-08-12T14:10:02.230Z,41.30
2022-08-12T14:17:09.756Z,40.90
2022-08-12T14:24:10.547Z,40.60
2022-08-12T14:31:18.166Z,40.20
2022-08-12T14:38:25.878Z,40.00
2022-08-12T14:45:44.715Z,39.70
2022-08-12T14:55:36.237Z,39.70
2022-08-12T15:00:27.231Z,38.40
2022-08-12T15:07:34.241Z,38.60
2022-08-12T15:14:48.895Z,38.90
2022-08-12T15:22:37.642Z,39.30
2022-08-12T15:29:10.865Z,38.70
2022-08-12T15:36:12.918Z,38.50
2022-08-12T15:43:27.294Z,38.70
2022-08-12T15:50:37.505Z,38.50
2022-08-12T15:57:40.008Z,38.10
2022-08-12T16:04:41.249Z,38.00
2022-08-12T16:11:43.629Z,37.90
2022-08-12T16:18:44.681Z,37.70
2022-08-12T16:26:02.739Z,38.00
2022-08-12T16:33:14.327Z,37.60
2022-08-12T16:40:21.654Z,37.70
2022-08-12T16:47:23.092Z,37.60
2022-08-12T16:54:36.061Z,37.60
2022-08-12T17:01:37.459Z,37.90
2022-08-12T17:08:38.374Z,38.10
2022-08-12T17:15:57.213Z,38.40
2022-08-12T17:23:16.009Z,38.40
2022-08-12T17:30:17.427Z,38.70
2022-08-12T17:37:19.308Z,38.70
2022-08-12T17:44:20.727Z,38.90
2022-08-12T17:51:21.945Z,39.10
2022-08-12T17:58:35.747Z,39.30
2022-08-12T18:05:55.356Z,39.50
2022-08-12T18:13:02.112Z,39.80
2022-08-12T18:20:07.682Z,40.10
2022-08-12T18:27:30.223Z,40.30
2022-08-12T18:34:32.327Z,40.70
2022-08-12T18:41:35.766Z,41.20
2022-08-12T18:48:38.781Z,41.70
2022-08-12T18:55:41.481Z,42.20
2022-08-12T19:02:57.709Z,42.70
2022-08-12T19:09:59.999Z,43.20
2022-08-12T19:17:05.121Z,43.70
2022-08-12T19:24:24.981Z,44.10
2022-08-12T19:31:58.012Z,44.40
2022-08-12T19:39:01.742Z,44.80
2022-08-12T19:46:02.165Z,45.20
2022-08-12T19:53:02.948Z,45.90
2022-08-12T20:00:17.217Z,45.90
2022-08-12T20:07:24.136Z,46.30
2022-08-12T20:14:26.325Z,46.80
2022-08-12T20:21:27.876Z,47.10
2022-08-12T20:28:41.172Z,47.30
2022-08-12T20:36:13.484Z,47.60
2022-08-12T20:43:03.288Z,48.10
2022-08-12T20:50:08.293Z,48.50
2022-08-12T20:57:09.932Z,48.60
2022-08-12T21:04:30.746Z,49.10
2022-08-12T21:11:32.505Z,49.40
2022-08-12T21:18:35.684Z,49.70
2022-08-12T21:25:45.462Z,50.10
2022-08-12T21:32:50.520Z,50.20
2022-08-12T21:39:53.364Z,50.60
2022-08-12T21:46:57.295Z,51.00
2022-08-12T21:54:06.811Z,51.30
2022-08-12T22:01:10.372Z,51.40
2022-08-12T22:08:25.671Z,51.80
2022-08-12T22:15:29.659Z,52.00
2022-08-12T22:22:34.068Z,52.10
2022-08-12T22:29:54.312Z,52.50
2022-08-12T22:36:57.176Z,52.50
2022-08-12T22:44:17.634Z,52.90
2022-08-12T22:51:22.246Z,53.00
2022-08-12T22:58:27.407Z,53.30
2022-08-12T23:05:56.943Z,53.40
2022-08-12T23:13:14.079Z,53.50
2022-08-12T23:20:15.298Z,53.90
2022-08-12T23:27:50.560Z,54.10
2022-08-12T23:34:52.604Z,54.10
2022-08-12T23:42:16.918Z,54.60
2022-08-12T23:49:55.111Z,54.60
2022-08-12T23:56:38.787Z,54.90
